sensor_id;sensor_type;location;lat;lon;timestamp;P1;durP1;ratioP1;P2;durP2;ratioP2
22480;SDS011;11407;56.964;-2.212;2022-11-09T00:01:35;2.50;;;1.20;;
22480;SDS011;11407;56.964;-2.212;2022-11-09T00:04:01;1.90;;;1.03;;
22480;SDS011;11407;56.964;-2.212;2022-11-09T00:06:28;1.17;;;1.00;;
22480;SDS011;11407;56.964;-2.212;2022-11-09T00:08:55;2.13;;;1.20;;
22480;SDS011;11407;56.964;-2.212;2022-11-09T00:11:20;5.40;;;1.10;;
22480;SDS011;11407;56.964;-2.212;2022-11-09T00:13:46;3.23;;;1.20;;
22480;SDS011;11407;56.964;-2.212;2022-11-09T00:16:14;3.10;;;1.13;;
22480;SDS011;11407;56.964;-2.212;2022-11-09T00:18:41;2.60;;;1.10;;
22480;SDS011;11407;56.964;-2.212;2022-11-09T00:21:29;3.37;;;1.10;;
22480;SDS011;11407;56.964;-2.212;2022-11-09T00:23:55;1.63;;;1.00;;
22480;SDS011;11407;56.964;-2.212;2022-11-09T00:26:22;3.00;;;1.10;;
22480;SDS011;11407;56.964;-2.212;2022-11-09T00:28:47;2.50;;;1.10;;
22480;SDS011;11407;56.964;-2.212;2022-11-09T00:31:15;1.10;;;1.00;;
22480;SDS011;11407;56.964;-2.212;2022-11-09T00:33:42;1.27;;;1.03;;
22480;SDS011;11407;56.964;-2.212;2022-11-09T00:36:09;1.97;;;1.03;;
22480;SDS011;11407;56.964;-2.212;2022-11-09T00:38:36;2.57;;;1.03;;
22480;SDS011;11407;56.964;-2.212;2022-11-09T00:41:04;3.13;;;1.00;;
22480;SDS011;11407;56.964;-2.212;2022-11-09T00:43:31;1.70;;;0.90;;
22480;SDS011;11407;56.964;-2.212;2022-11-09T00:45:57;0.90;;;0.80;;
22480;SDS011;11407;56.964;-2.212;2022-11-09T00:48:22;3.13;;;0.77;;
22480;SDS011;11407;56.964;-2.212;2022-11-09T00:50:51;1.37;;;0.80;;
22480;SDS011;11407;56.964;-2.212;2022-11-09T00:53:18;2.17;;;1.00;;
22480;SDS011;11407;56.964;-2.212;2022-11-09T00:55:54;3.20;;;1.30;;
22480;SDS011;11407;56.964;-2.212;2022-11-09T00:58:20;1.23;;;0.90;;
22480;SDS011;11407;56.964;-2.212;2022-11-09T01:00:45;1.43;;;0.83;;
22480;SDS011;11407;56.964;-2.212;2022-11-09T01:03:10;2.03;;;0.80;;
22480;SDS011;11407;56.964;-2.212;2022-11-09T01:05:36;1.83;;;0.90;;
22480;SDS011;11407;56.964;-2.212;2022-11-09T01:08:03;1.80;;;1.00;;
22480;SDS011;11407;56.964;-2.212;2022-11-09T01:10:29;1.30;;;1.00;;
22480;SDS011;11407;56.964;-2.212;2022-11-09T01:12:55;1.87;;;0.80;;
22480;SDS011;11407;56.964;-2.212;2022-11-09T01:15:20;2.10;;;1.20;;
22480;SDS011;11407;56.964;-2.212;2022-11-09T01:17:45;1.27;;;1.00;;
22480;SDS011;11407;56.964;-2.212;2022-11-09T01:20:11;1.27;;;0.90;;
22480;SDS011;11407;56.964;-2.212;2022-11-09T01:22:38;1.37;;;1.00;;
22480;SDS011;11407;56.964;-2.212;2022-11-09T01:25:04;1.53;;;0.90;;
22480;SDS011;11407;56.964;-2.212;2022-11-09T01:27:29;2.57;;;1.20;;
22480;SDS011;11407;56.964;-2.212;2022-11-09T01:29:56;4.10;;;1.10;;
22480;SDS011;11407;56.964;-2.212;2022-11-09T01:32:22;1.33;;;1.00;;
22480;SDS011;11407;56.964;-2.212;2022-11-09T01:34:47;3.20;;;1.00;;
22480;SDS011;11407;56.964;-2.212;2022-11-09T01:37:13;1.07;;;0.90;;
22480;SDS011;11407;56.964;-2.212;2022-11-09T01:39:38;1.10;;;0.93;;
22480;SDS011;11407;56.964;-2.212;2022-11-09T01:42:03;1.83;;;1.00;;
22480;SDS011;11407;56.964;-2.212;2022-11-09T01:44:29;2.20;;;1.00;;
22480;SDS011;11407;56.964;-2.212;2022-11-09T01:46:56;1.70;;;1.13;;
22480;SDS011;11407;56.964;-2.212;2022-11-09T01:49:44;2.00;;;1.20;;
22480;SDS011;11407;56.964;-2.212;2022-11-09T01:52:17;1.37;;;1.10;;
22480;SDS011;11407;56.964;-2.212;2022-11-09T01:54:47;2.27;;;1.10;;
22480;SDS011;11407;56.964;-2.212;2022-11-09T01:57:21;1.23;;;1.10;;
22480;SDS011;11407;56.964;-2.212;2022-11-09T01:59:59;1.93;;;1.10;;
22480;SDS011;11407;56.964;-2.212;2022-11-09T02:02:32;1.37;;;1.27;;
22480;SDS011;11407;56.964;-2.212;2022-11-09T02:05:02;1.33;;;1.07;;
22480;SDS011;11407;56.964;-2.212;2022-11-09T02:07:33;1.20;;;1.10;;
22480;SDS011;11407;56.964;-2.212;2022-11-09T02:10:09;1.20;;;1.10;;
22480;SDS011;11407;56.964;-2.212;2022-11-09T02:12:38;1.80;;;1.30;;
22480;SDS011;11407;56.964;-2.212;2022-11-09T02:15:05;2.23;;;1.10;;
22480;SDS011;11407;56.964;-2.212;2022-11-09T02:17:34;3.77;;;1.47;;
22480;SDS011;11407;56.964;-2.212;2022-11-09T02:20:00;1.77;;;1.40;;
22480;SDS011;11407;56.964;-2.212;2022-11-09T02:22:30;2.57;;;1.37;;
22480;SDS011;11407;56.964;-2.212;2022-11-09T02:24:56;1.90;;;1.50;;
22480;SDS011;11407;56.964;-2.212;2022-11-09T02:27:21;1.93;;;1.60;;
22480;SDS011;11407;56.964;-2.212;2022-11-09T02:29:48;2.07;;;1.40;;
22480;SDS011;11407;56.964;-2.212;2022-11-09T02:32:21;2.33;;;1.50;;
22480;SDS011;11407;56.964;-2.212;2022-11-09T02:34:52;2.43;;;1.57;;
22480;SDS011;11407;56.964;-2.212;2022-11-09T02:40:05;1.53;;;1.43;;
22480;SDS011;11407;56.964;-2.212;2022-11-09T02:42:35;4.53;;;1.70;;
22480;SDS011;11407;56.964;-2.212;2022-11-09T02:45:01;4.93;;;1.87;;
22480;SDS011;11407;56.964;-2.212;2022-11-09T02:47:26;2.93;;;1.77;;
22480;SDS011;11407;56.964;-2.212;2022-11-09T02:49:52;2.73;;;1.90;;
22480;SDS011;11407;56.964;-2.212;2022-11-09T02:52:17;2.27;;;1.50;;
22480;SDS011;11407;56.964;-2.212;2022-11-09T02:54:43;2.87;;;1.67;;
22480;SDS011;11407;56.964;-2.212;2022-11-09T02:57:09;2.23;;;1.57;;
22480;SDS011;11407;56.964;-2.212;2022-11-09T02:59:35;3.00;;;1.70;;
22480;SDS011;11407;56.964;-2.212;2022-11-09T03:02:00;2.57;;;1.43;;
22480;SDS011;11407;56.964;-2.212;2022-11-09T03:04:26;2.40;;;1.60;;
22480;SDS011;11407;56.964;-2.212;2022-11-09T03:06:51;2.80;;;1.60;;
22480;SDS011;11407;56.964;-2.212;2022-11-09T03:09:17;2.83;;;1.70;;
22480;SDS011;11407;56.964;-2.212;2022-11-09T03:11:43;2.27;;;1.67;;
22480;SDS011;11407;56.964;-2.212;2022-11-09T03:14:08;2.50;;;1.47;;
22480;SDS011;11407;56.964;-2.212;2022-11-09T03:16:34;3.00;;;1.50;;
22480;SDS011;11407;56.964;-2.212;2022-11-09T03:19:00;1.93;;;1.50;;
22480;SDS011;11407;56.964;-2.212;2022-11-09T03:21:25;1.90;;;1.60;;
22480;SDS011;11407;56.964;-2.212;2022-11-09T03:23:52;1.50;;;1.33;;
22480;SDS011;11407;56.964;-2.212;2022-11-09T03:26:18;2.97;;;1.90;;
22480;SDS011;11407;56.964;-2.212;2022-11-09T03:28:44;5.07;;;1.60;;
22480;SDS011;11407;56.964;-2.212;2022-11-09T03:31:10;3.43;;;1.57;;
22480;SDS011;11407;56.964;-2.212;2022-11-09T03:33:35;3.97;;;1.70;;
22480;SDS011;11407;56.964;-2.212;2022-11-09T03:36:01;2.83;;;1.90;;
22480;SDS011;11407;56.964;-2.212;2022-11-09T03:38:27;1.80;;;1.70;;
22480;SDS011;11407;56.964;-2.212;2022-11-09T03:40:52;1.93;;;1.47;;
22480;SDS011;11407;56.964;-2.212;2022-11-09T03:43:18;2.47;;;1.90;;
22480;SDS011;11407;56.964;-2.212;2022-11-09T03:45:45;3.87;;;1.70;;
22480;SDS011;11407;56.964;-2.212;2022-11-09T03:48:11;3.97;;;1.77;;
22480;SDS011;11407;56.964;-2.212;2022-11-09T03:50:36;3.00;;;1.57;;
22480;SDS011;11407;56.964;-2.212;2022-11-09T03:53:06;4.17;;;1.80;;
22480;SDS011;11407;56.964;-2.212;2022-11-09T03:55:33;1.57;;;1.33;;
22480;SDS011;11407;56.964;-2.212;2022-11-09T03:57:59;2.03;;;1.53;;
22480;SDS011;11407;56.964;-2.212;2022-11-09T04:00:24;1.17;;;1.07;;
22480;SDS011;11407;56.964;-2.212;2022-11-09T04:02:50;3.23;;;1.53;;
22480;SDS011;11407;56.964;-2.212;2022-11-09T04:05:15;2.07;;;1.70;;
22480;SDS011;11407;56.964;-2.212;2022-11-09T04:07:48;2.20;;;1.40;;
22480;SDS011;11407;56.964;-2.212;2022-11-09T04:10:15;2.27;;;1.50;;
22480;SDS011;11407;56.964;-2.212;2022-11-09T04:12:41;2.50;;;1.57;;
22480;SDS011;11407;56.964;-2.212;2022-11-09T04:15:06;2.73;;;1.80;;
22480;SDS011;11407;56.964;-2.212;2022-11-09T04:17:32;1.70;;;1.60;;
22480;SDS011;11407;56.964;-2.212;2022-11-09T04:19:57;3.87;;;1.50;;
22480;SDS011;11407;56.964;-2.212;2022-11-09T04:22:23;1.80;;;1.67;;
22480;SDS011;11407;56.964;-2.212;2022-11-09T04:24:48;2.83;;;1.57;;
22480;SDS011;11407;56.964;-2.212;2022-11-09T04:27:13;3.40;;;1.60;;
22480;SDS011;11407;56.964;-2.212;2022-11-09T04:29:39;2.47;;;1.63;;
22480;SDS011;11407;56.964;-2.212;2022-11-09T04:32:05;1.63;;;1.30;;
22480;SDS011;11407;56.964;-2.212;2022-11-09T04:34:30;2.70;;;1.53;;
22480;SDS011;11407;56.964;-2.212;2022-11-09T04:36:55;2.23;;;1.60;;
22480;SDS011;11407;56.964;-2.212;2022-11-09T04:39:21;4.23;;;1.40;;
22480;SDS011;11407;56.964;-2.212;2022-11-09T04:41:46;1.90;;;1.30;;
22480;SDS011;11407;56.964;-2.212;2022-11-09T04:44:11;2.50;;;1.40;;
22480;SDS011;11407;56.964;-2.212;2022-11-09T04:46:37;1.60;;;1.43;;
22480;SDS011;11407;56.964;-2.212;2022-11-09T04:49:02;3.57;;;1.10;;
22480;SDS011;11407;56.964;-2.212;2022-11-09T04:51:28;3.43;;;1.40;;
22480;SDS011;11407;56.964;-2.212;2022-11-09T04:53:53;2.50;;;1.07;;
22480;SDS011;11407;56.964;-2.212;2022-11-09T04:56:20;1.77;;;1.30;;
22480;SDS011;11407;56.964;-2.212;2022-11-09T04:58:46;4.27;;;1.40;;
22480;SDS011;11407;56.964;-2.212;2022-11-09T05:01:12;1.80;;;1.10;;
22480;SDS011;11407;56.964;-2.212;2022-11-09T05:03:38;2.80;;;1.43;;
22480;SDS011;11407;56.964;-2.212;2022-11-09T05:06:04;1.43;;;1.10;;
22480;SDS011;11407;56.964;-2.212;2022-11-09T05:08:50;2.70;;;1.03;;
22480;SDS011;11407;56.964;-2.212;2022-11-09T05:11:18;3.57;;;1.30;;
22480;SDS011;11407;56.964;-2.212;2022-11-09T05:13:44;2.30;;;1.00;;
22480;SDS011;11407;56.964;-2.212;2022-11-09T05:16:10;3.33;;;1.40;;
22480;SDS011;11407;56.964;-2.212;2022-11-09T05:18:35;1.27;;;1.10;;
22480;SDS011;11407;56.964;-2.212;2022-11-09T05:21:01;1.90;;;1.03;;
22480;SDS011;11407;56.964;-2.212;2022-11-09T05:23:27;1.40;;;1.10;;
22480;SDS011;11407;56.964;-2.212;2022-11-09T05:26:11;2.70;;;1.30;;
22480;SDS011;11407;56.964;-2.212;2022-11-09T05:28:37;3.60;;;1.20;;
22480;SDS011;11407;56.964;-2.212;2022-11-09T05:31:02;3.47;;;1.00;;
22480;SDS011;11407;56.964;-2.212;2022-11-09T05:33:28;1.57;;;1.00;;
22480;SDS011;11407;56.964;-2.212;2022-11-09T05:35:54;2.40;;;1.20;;
22480;SDS011;11407;56.964;-2.212;2022-11-09T05:38:20;3.17;;;1.00;;
22480;SDS011;11407;56.964;-2.212;2022-11-09T05:40:52;2.73;;;1.20;;
22480;SDS011;11407;56.964;-2.212;2022-11-09T05:43:18;2.50;;;1.40;;
22480;SDS011;11407;56.964;-2.212;2022-11-09T05:45:45;4.70;;;1.30;;
22480;SDS011;11407;56.964;-2.212;2022-11-09T05:48:14;4.17;;;1.13;;
22480;SDS011;11407;56.964;-2.212;2022-11-09T05:50:41;3.93;;;1.30;;
22480;SDS011;11407;56.964;-2.212;2022-11-09T05:53:07;2.83;;;1.10;;
22480;SDS011;11407;56.964;-2.212;2022-11-09T05:55:33;3.00;;;1.37;;
22480;SDS011;11407;56.964;-2.212;2022-11-09T05:57:59;7.13;;;1.40;;
22480;SDS011;11407;56.964;-2.212;2022-11-09T06:00:25;4.67;;;1.40;;
22480;SDS011;11407;56.964;-2.212;2022-11-09T06:02:51;3.40;;;1.10;;
22480;SDS011;11407;56.964;-2.212;2022-11-09T06:05:16;2.87;;;1.20;;
22480;SDS011;11407;56.964;-2.212;2022-11-09T06:07:42;4.93;;;1.13;;
22480;SDS011;11407;56.964;-2.212;2022-11-09T06:10:08;4.57;;;1.20;;
22480;SDS011;11407;56.964;-2.212;2022-11-09T06:12:33;3.13;;;1.50;;
22480;SDS011;11407;56.964;-2.212;2022-11-09T06:14:59;7.77;;;1.57;;
22480;SDS011;11407;56.964;-2.212;2022-11-09T06:17:24;3.77;;;1.20;;
22480;SDS011;11407;56.964;-2.212;2022-11-09T06:19:50;3.40;;;1.30;;
22480;SDS011;11407;56.964;-2.212;2022-11-09T06:22:15;2.87;;;1.27;;
22480;SDS011;11407;56.964;-2.212;2022-11-09T06:24:41;5.30;;;1.30;;
22480;SDS011;11407;56.964;-2.212;2022-11-09T06:27:06;2.90;;;1.20;;
22480;SDS011;11407;56.964;-2.212;2022-11-09T06:29:32;7.93;;;1.60;;
22480;SDS011;11407;56.964;-2.212;2022-11-09T06:31:57;6.93;;;1.37;;
22480;SDS011;11407;56.964;-2.212;2022-11-09T06:34:22;4.47;;;1.20;;
22480;SDS011;11407;56.964;-2.212;2022-11-09T06:36:48;3.93;;;1.13;;
22480;SDS011;11407;56.964;-2.212;2022-11-09T06:39:13;5.97;;;1.37;;
22480;SDS011;11407;56.964;-2.212;2022-11-09T06:41:39;4.60;;;1.37;;
22480;SDS011;11407;56.964;-2.212;2022-11-09T06:44:04;4.97;;;1.40;;
22480;SDS011;11407;56.964;-2.212;2022-11-09T06:46:30;4.10;;;1.47;;
22480;SDS011;11407;56.964;-2.212;2022-11-09T06:48:57;5.07;;;1.57;;
22480;SDS011;11407;56.964;-2.212;2022-11-09T06:51:22;7.30;;;1.40;;
22480;SDS011;11407;56.964;-2.212;2022-11-09T06:53:48;4.60;;;1.40;;
22480;SDS011;11407;56.964;-2.212;2022-11-09T06:56:14;4.83;;;1.67;;
22480;SDS011;11407;56.964;-2.212;2022-11-09T06:58:39;4.47;;;1.80;;
22480;SDS011;11407;56.964;-2.212;2022-11-09T07:01:06;7.30;;;1.93;;
22480;SDS011;11407;56.964;-2.212;2022-11-09T07:03:33;7.07;;;1.40;;
22480;SDS011;11407;56.964;-2.212;2022-11-09T07:06:02;4.80;;;1.43;;
22480;SDS011;11407;56.964;-2.212;2022-11-09T07:08:32;5.07;;;1.60;;
22480;SDS011;11407;56.964;-2.212;2022-11-09T07:11:08;3.20;;;1.30;;
22480;SDS011;11407;56.964;-2.212;2022-11-09T07:13:35;6.93;;;1.37;;
22480;SDS011;11407;56.964;-2.212;2022-11-09T07:16:02;3.93;;;1.50;;
22480;SDS011;11407;56.964;-2.212;2022-11-09T07:18:27;6.47;;;1.47;;
22480;SDS011;11407;56.964;-2.212;2022-11-09T07:20:53;4.70;;;1.50;;
22480;SDS011;11407;56.964;-2.212;2022-11-09T07:23:18;3.83;;;1.00;;
22480;SDS011;11407;56.964;-2.212;2022-11-09T07:25:44;5.97;;;1.20;;
22480;SDS011;11407;56.964;-2.212;2022-11-09T07:28:09;6.20;;;1.60;;
22480;SDS011;11407;56.964;-2.212;2022-11-09T07:30:36;4.53;;;1.50;;
22480;SDS011;11407;56.964;-2.212;2022-11-09T07:33:03;3.70;;;1.20;;
22480;SDS011;11407;56.964;-2.212;2022-11-09T07:35:35;5.87;;;1.50;;
22480;SDS011;11407;56.964;-2.212;2022-11-09T07:38:01;3.07;;;1.20;;
22480;SDS011;11407;56.964;-2.212;2022-11-09T07:40:27;3.03;;;1.27;;
22480;SDS011;11407;56.964;-2.212;2022-11-09T07:42:56;4.90;;;1.17;;
22480;SDS011;11407;56.964;-2.212;2022-11-09T07:45:22;4.53;;;1.50;;
22480;SDS011;11407;56.964;-2.212;2022-11-09T07:47:47;6.30;;;1.50;;
22480;SDS011;11407;56.964;-2.212;2022-11-09T07:50:13;2.50;;;1.00;;
22480;SDS011;11407;56.964;-2.212;2022-11-09T07:52:39;3.87;;;1.30;;
22480;SDS011;11407;56.964;-2.212;2022-11-09T07:55:04;5.57;;;1.53;;
22480;SDS011;11407;56.964;-2.212;2022-11-09T07:57:30;3.93;;;1.40;;
22480;SDS011;11407;56.964;-2.212;2022-11-09T07:59:55;9.70;;;1.40;;
22480;SDS011;11407;56.964;-2.212;2022-11-09T08:02:21;8.00;;;1.63;;
22480;SDS011;11407;56.964;-2.212;2022-11-09T08:04:46;5.83;;;1.47;;
22480;SDS011;11407;56.964;-2.212;2022-11-09T08:07:12;5.73;;;1.70;;
22480;SDS011;11407;56.964;-2.212;2022-11-09T08:09:37;9.17;;;1.57;;
22480;SDS011;11407;56.964;-2.212;2022-11-09T08:12:02;3.80;;;1.67;;
22480;SDS011;11407;56.964;-2.212;2022-11-09T08:14:28;3.30;;;1.57;;
22480;SDS011;11407;56.964;-2.212;2022-11-09T08:16:53;5.37;;;1.53;;
22480;SDS011;11407;56.964;-2.212;2022-11-09T08:19:19;4.03;;;1.60;;
22480;SDS011;11407;56.964;-2.212;2022-11-09T08:21:44;6.00;;;1.17;;
22480;SDS011;11407;56.964;-2.212;2022-11-09T08:24:10;4.63;;;1.87;;
22480;SDS011;11407;56.964;-2.212;2022-11-09T08:26:35;5.20;;;1.43;;
22480;SDS011;11407;56.964;-2.212;2022-11-09T08:29:01;2.30;;;1.20;;
22480;SDS011;11407;56.964;-2.212;2022-11-09T08:31:26;5.17;;;1.30;;
22480;SDS011;11407;56.964;-2.212;2022-11-09T08:33:51;4.57;;;1.70;;
22480;SDS011;11407;56.964;-2.212;2022-11-09T08:36:17;5.73;;;1.20;;
22480;SDS011;11407;56.964;-2.212;2022-11-09T08:38:43;7.53;;;1.43;;
22480;SDS011;11407;56.964;-2.212;2022-11-09T08:41:10;6.50;;;1.40;;
22480;SDS011;11407;56.964;-2.212;2022-11-09T08:43:36;3.80;;;1.20;;
22480;SDS011;11407;56.964;-2.212;2022-11-09T08:46:02;5.40;;;1.43;;
22480;SDS011;11407;56.964;-2.212;2022-11-09T08:48:28;3.10;;;1.07;;
22480;SDS011;11407;56.964;-2.212;2022-11-09T08:50:54;3.43;;;1.20;;
22480;SDS011;11407;56.964;-2.212;2022-11-09T08:53:23;3.87;;;1.17;;
22480;SDS011;11407;56.964;-2.212;2022-11-09T08:55:50;5.43;;;1.57;;
22480;SDS011;11407;56.964;-2.212;2022-11-09T08:58:16;9.07;;;1.47;;
22480;SDS011;11407;56.964;-2.212;2022-11-09T09:00:42;6.37;;;1.20;;
22480;SDS011;11407;56.964;-2.212;2022-11-09T09:03:07;5.50;;;1.30;;
22480;SDS011;11407;56.964;-2.212;2022-11-09T09:05:33;3.40;;;1.40;;
22480;SDS011;11407;56.964;-2.212;2022-11-09T09:07:59;6.30;;;1.33;;
22480;SDS011;11407;56.964;-2.212;2022-11-09T09:10:26;3.00;;;1.00;;
22480;SDS011;11407;56.964;-2.212;2022-11-09T09:12:51;4.63;;;1.20;;
22480;SDS011;11407;56.964;-2.212;2022-11-09T09:15:17;4.60;;;1.37;;
22480;SDS011;11407;56.964;-2.212;2022-11-09T09:17:43;5.33;;;1.40;;
22480;SDS011;11407;56.964;-2.212;2022-11-09T09:20:08;7.07;;;1.40;;
22480;SDS011;11407;56.964;-2.212;2022-11-09T09:22:34;5.60;;;1.20;;
22480;SDS011;11407;56.964;-2.212;2022-11-09T09:25:00;4.03;;;1.43;;
22480;SDS011;11407;56.964;-2.212;2022-11-09T09:27:26;4.77;;;1.13;;
22480;SDS011;11407;56.964;-2.212;2022-11-09T09:29:53;5.07;;;1.50;;
22480;SDS011;11407;56.964;-2.212;2022-11-09T09:32:19;5.50;;;1.57;;
22480;SDS011;11407;56.964;-2.212;2022-11-09T09:34:44;8.20;;;1.37;;
22480;SDS011;11407;56.964;-2.212;2022-11-09T09:37:09;5.77;;;1.60;;
22480;SDS011;11407;56.964;-2.212;2022-11-09T09:39:35;6.33;;;1.70;;
22480;SDS011;11407;56.964;-2.212;2022-11-09T09:42:03;5.67;;;1.50;;
22480;SDS011;11407;56.964;-2.212;2022-11-09T09:47:12;3.43;;;1.07;;
22480;SDS011;11407;56.964;-2.212;2022-11-09T09:49:42;8.07;;;1.80;;
22480;SDS011;11407;56.964;-2.212;2022-11-09T09:57:35;8.23;;;1.53;;
22480;SDS011;11407;56.964;-2.212;2022-11-09T10:00:03;6.53;;;1.57;;
22480;SDS011;11407;56.964;-2.212;2022-11-09T10:02:33;4.93;;;1.37;;
22480;SDS011;11407;56.964;-2.212;2022-11-09T10:05:01;6.90;;;1.60;;
22480;SDS011;11407;56.964;-2.212;2022-11-09T10:21:55;7.13;;;1.40;;
22480;SDS011;11407;56.964;-2.212;2022-11-09T10:26:55;4.73;;;1.53;;
22480;SDS011;11407;56.964;-2.212;2022-11-09T10:29:35;7.17;;;1.70;;
22480;SDS011;11407;56.964;-2.212;2022-11-09T10:32:11;4.83;;;1.50;;
22480;SDS011;11407;56.964;-2.212;2022-11-09T10:37:31;3.63;;;1.43;;
22480;SDS011;11407;56.964;-2.212;2022-11-09T10:45:43;4.53;;;1.70;;
22480;SDS011;11407;56.964;-2.212;2022-11-09T10:48:10;3.97;;;1.30;;
22480;SDS011;11407;56.964;-2.212;2022-11-09T10:50:38;5.43;;;1.93;;
22480;SDS011;11407;56.964;-2.212;2022-11-09T10:53:14;4.63;;;1.37;;
22480;SDS011;11407;56.964;-2.212;2022-11-09T10:58:37;4.23;;;1.00;;
22480;SDS011;11407;56.964;-2.212;2022-11-09T11:01:13;5.60;;;1.30;;
22480;SDS011;11407;56.964;-2.212;2022-11-09T11:03:44;6.33;;;1.37;;
22480;SDS011;11407;56.964;-2.212;2022-11-09T11:08:39;6.23;;;1.60;;
22480;SDS011;11407;56.964;-2.212;2022-11-09T11:11:17;3.90;;;1.20;;
22480;SDS011;11407;56.964;-2.212;2022-11-09T11:13:48;6.17;;;1.27;;
22480;SDS011;11407;56.964;-2.212;2022-11-09T11:18:56;6.13;;;1.20;;
22480;SDS011;11407;56.964;-2.212;2022-11-09T11:21:23;3.50;;;1.33;;
22480;SDS011;11407;56.964;-2.212;2022-11-09T11:24:02;6.93;;;1.50;;
22480;SDS011;11407;56.964;-2.212;2022-11-09T11:26:53;7.13;;;1.57;;
22480;SDS011;11407;56.964;-2.212;2022-11-09T11:31:53;3.80;;;1.30;;
22480;SDS011;11407;56.964;-2.212;2022-11-09T11:34:18;4.83;;;1.20;;
22480;SDS011;11407;56.964;-2.212;2022-11-09T11:45:19;5.50;;;1.37;;
22480;SDS011;11407;56.964;-2.212;2022-11-09T11:50:33;5.50;;;1.30;;
22480;SDS011;11407;56.964;-2.212;2022-11-09T11:53:11;4.00;;;1.30;;
22480;SDS011;11407;56.964;-2.212;2022-11-09T11:56:25;5.93;;;1.23;;
22480;SDS011;11407;56.964;-2.212;2022-11-09T12:01:27;4.17;;;1.07;;
22480;SDS011;11407;56.964;-2.212;2022-11-09T12:04:11;7.57;;;1.30;;
22480;SDS011;11407;56.964;-2.212;2022-11-09T12:09:32;5.50;;;1.20;;
22480;SDS011;11407;56.964;-2.212;2022-11-09T12:18:01;6.23;;;1.47;;
22480;SDS011;11407;56.964;-2.212;2022-11-09T12:29:15;4.37;;;1.30;;
22480;SDS011;11407;56.964;-2.212;2022-11-09T12:37:11;3.07;;;1.20;;
22480;SDS011;11407;56.964;-2.212;2022-11-09T12:47:58;5.13;;;1.70;;
22480;SDS011;11407;56.964;-2.212;2022-11-09T12:50:29;6.93;;;1.53;;
22480;SDS011;11407;56.964;-2.212;2022-11-09T12:52:56;4.50;;;1.30;;
22480;SDS011;11407;56.964;-2.212;2022-11-09T12:58:17;7.03;;;1.40;;
22480;SDS011;11407;56.964;-2.212;2022-11-09T13:00:45;7.10;;;1.80;;
22480;SDS011;11407;56.964;-2.212;2022-11-09T13:03:14;5.80;;;1.10;;
22480;SDS011;11407;56.964;-2.212;2022-11-09T13:05:45;12.57;;;1.60;;
22480;SDS011;11407;56.964;-2.212;2022-11-09T13:08:54;4.57;;;1.40;;
22480;SDS011;11407;56.964;-2.212;2022-11-09T13:13:35;5.60;;;1.50;;
22480;SDS011;11407;56.964;-2.212;2022-11-09T13:23:50;5.80;;;1.43;;
22480;SDS011;11407;56.964;-2.212;2022-11-09T13:29:07;5.60;;;1.20;;
22480;SDS011;11407;56.964;-2.212;2022-11-09T13:40:01;6.70;;;1.53;;
22480;SDS011;11407;56.964;-2.212;2022-11-09T13:56:11;8.67;;;1.57;;
22480;SDS011;11407;56.964;-2.212;2022-11-09T13:58:43;5.10;;;1.40;;
22480;SDS011;11407;56.964;-2.212;2022-11-09T14:01:33;5.70;;;1.47;;
22480;SDS011;11407;56.964;-2.212;2022-11-09T14:04:00;5.37;;;1.47;;
22480;SDS011;11407;56.964;-2.212;2022-11-09T14:06:28;5.17;;;1.33;;
22480;SDS011;11407;56.964;-2.212;2022-11-09T14:08:54;7.23;;;1.60;;
22480;SDS011;11407;56.964;-2.212;2022-11-09T14:17:04;5.77;;;1.67;;
22480;SDS011;11407;56.964;-2.212;2022-11-09T14:22:01;6.13;;;1.90;;
22480;SDS011;11407;56.964;-2.212;2022-11-09T14:24:28;7.93;;;1.73;;
22480;SDS011;11407;56.964;-2.212;2022-11-09T14:27:17;9.07;;;2.00;;
22480;SDS011;11407;56.964;-2.212;2022-11-09T14:29:52;6.03;;;1.20;;
22480;SDS011;11407;56.964;-2.212;2022-11-09T14:32:35;9.27;;;1.97;;
22480;SDS011;11407;56.964;-2.212;2022-11-09T14:35:43;3.90;;;1.00;;
22480;SDS011;11407;56.964;-2.212;2022-11-09T14:37:50;5.17;;;1.17;;
22480;SDS011;11407;56.964;-2.212;2022-11-09T14:40:18;3.43;;;1.40;;
22480;SDS011;11407;56.964;-2.212;2022-11-09T14:42:50;4.40;;;1.33;;
22480;SDS011;11407;56.964;-2.212;2022-11-09T14:45:18;5.77;;;1.80;;
22480;SDS011;11407;56.964;-2.212;2022-11-09T14:47:45;6.43;;;1.50;;
22480;SDS011;11407;56.964;-2.212;2022-11-09T14:50:25;6.90;;;1.60;;
22480;SDS011;11407;56.964;-2.212;2022-11-09T14:53:01;6.33;;;1.40;;
22480;SDS011;11407;56.964;-2.212;2022-11-09T14:55:28;6.43;;;1.40;;
22480;SDS011;11407;56.964;-2.212;2022-11-09T14:57:55;5.40;;;1.50;;
22480;SDS011;11407;56.964;-2.212;2022-11-09T15:00:31;5.20;;;1.47;;
22480;SDS011;11407;56.964;-2.212;2022-11-09T15:02:59;7.73;;;1.90;;
22480;SDS011;11407;56.964;-2.212;2022-11-09T15:05:44;4.50;;;1.57;;
22480;SDS011;11407;56.964;-2.212;2022-11-09T15:08:20;7.10;;;1.90;;
22480;SDS011;11407;56.964;-2.212;2022-11-09T15:10:50;7.37;;;1.77;;
22480;SDS011;11407;56.964;-2.212;2022-11-09T15:13:18;9.10;;;1.50;;
22480;SDS011;11407;56.964;-2.212;2022-11-09T15:15:52;7.80;;;1.83;;
22480;SDS011;11407;56.964;-2.212;2022-11-09T15:18:29;8.00;;;1.50;;
22480;SDS011;11407;56.964;-2.212;2022-11-09T15:21:10;7.57;;;1.63;;
22480;SDS011;11407;56.964;-2.212;2022-11-09T15:23:41;5.97;;;1.57;;
22480;SDS011;11407;56.964;-2.212;2022-11-09T15:26:24;9.53;;;1.70;;
22480;SDS011;11407;56.964;-2.212;2022-11-09T15:29:01;10.07;;;1.90;;
22480;SDS011;11407;56.964;-2.212;2022-11-09T15:34:53;7.97;;;1.93;;
22480;SDS011;11407;56.964;-2.212;2022-11-09T15:37:22;7.60;;;1.90;;
22480;SDS011;11407;56.964;-2.212;2022-11-09T15:39:52;6.83;;;1.97;;
22480;SDS011;11407;56.964;-2.212;2022-11-09T15:42:17;4.90;;;1.80;;
22480;SDS011;11407;56.964;-2.212;2022-11-09T15:44:43;5.80;;;1.60;;
22480;SDS011;11407;56.964;-2.212;2022-11-09T15:47:22;8.97;;;2.00;;
22480;SDS011;11407;56.964;-2.212;2022-11-09T15:49:48;3.87;;;1.40;;
22480;SDS011;11407;56.964;-2.212;2022-11-09T15:52:14;4.87;;;1.57;;
22480;SDS011;11407;56.964;-2.212;2022-11-09T15:54:39;9.37;;;1.57;;
22480;SDS011;11407;56.964;-2.212;2022-11-09T15:57:05;7.23;;;1.70;;
22480;SDS011;11407;56.964;-2.212;2022-11-09T15:59:30;6.27;;;1.70;;
22480;SDS011;11407;56.964;-2.212;2022-11-09T16:01:56;6.40;;;1.53;;
22480;SDS011;11407;56.964;-2.212;2022-11-09T16:04:21;5.63;;;1.27;;
22480;SDS011;11407;56.964;-2.212;2022-11-09T16:06:47;5.07;;;1.37;;
22480;SDS011;11407;56.964;-2.212;2022-11-09T16:09:12;5.63;;;1.40;;
22480;SDS011;11407;56.964;-2.212;2022-11-09T16:11:38;6.90;;;1.30;;
22480;SDS011;11407;56.964;-2.212;2022-11-09T16:14:04;7.43;;;1.50;;
22480;SDS011;11407;56.964;-2.212;2022-11-09T16:16:29;4.30;;;2.10;;
22480;SDS011;11407;56.964;-2.212;2022-11-09T16:18:55;4.07;;;1.33;;
22480;SDS011;11407;56.964;-2.212;2022-11-09T16:21:21;7.07;;;1.30;;
22480;SDS011;11407;56.964;-2.212;2022-11-09T16:23:47;6.17;;;1.63;;
22480;SDS011;11407;56.964;-2.212;2022-11-09T16:26:14;6.43;;;1.30;;
22480;SDS011;11407;56.964;-2.212;2022-11-09T16:28:43;4.87;;;1.53;;
22480;SDS011;11407;56.964;-2.212;2022-11-09T16:31:10;6.63;;;1.53;;
22480;SDS011;11407;56.964;-2.212;2022-11-09T16:33:39;6.03;;;1.50;;
22480;SDS011;11407;56.964;-2.212;2022-11-09T16:36:07;6.50;;;1.30;;
22480;SDS011;11407;56.964;-2.212;2022-11-09T16:38:41;6.13;;;1.20;;
22480;SDS011;11407;56.964;-2.212;2022-11-09T16:41:09;4.13;;;1.20;;
22480;SDS011;11407;56.964;-2.212;2022-11-09T16:43:36;5.83;;;1.77;;
22480;SDS011;11407;56.964;-2.212;2022-11-09T16:46:02;5.83;;;1.47;;
22480;SDS011;11407;56.964;-2.212;2022-11-09T16:48:29;8.87;;;1.67;;
22480;SDS011;11407;56.964;-2.212;2022-11-09T16:50:57;6.47;;;1.53;;
22480;SDS011;11407;56.964;-2.212;2022-11-09T16:53:22;8.03;;;1.70;;
22480;SDS011;11407;56.964;-2.212;2022-11-09T16:55:47;3.40;;;1.10;;
22480;SDS011;11407;56.964;-2.212;2022-11-09T16:58:13;6.17;;;1.50;;
22480;SDS011;11407;56.964;-2.212;2022-11-09T17:00:42;3.23;;;1.30;;